sensor_id;sensor_type;location;lat;lon;timestamp;P1;durP1;ratioP1;P2;durP2;ratioP2
72132;SDS011;60008;50.826;6.896;2023-02-15T00:02:15;24.37;;;9.80;;
72132;SDS011;60008;50.826;6.896;2023-02-15T00:05:00;25.60;;;9.98;;
72132;SDS011;60008;50.826;6.896;2023-02-15T00:07:45;25.83;;;9.77;;
72132;SDS011;60008;50.826;6.896;2023-02-15T00:10:30;25.27;;;9.65;;
72132;SDS011;60008;50.826;6.896;2023-02-15T00:13:15;23.00;;;8.90;;
72132;SDS011;60008;50.826;6.896;2023-02-15T00:16:01;25.03;;;10.40;;
72132;SDS011;60008;50.826;6.896;2023-02-15T00:18:48;25.98;;;10.25;;
72132;SDS011;60008;50.826;6.896;2023-02-15T00:21:36;25.95;;;10.05;;
72132;SDS011;60008;50.826;6.896;2023-02-15T00:24:22;24.10;;;10.40;;
72132;SDS011;60008;50.826;6.896;2023-02-15T00:27:07;23.42;;;9.60;;
72132;SDS011;60008;50.826;6.896;2023-02-15T00:29:53;27.23;;;9.93;;
72132;SDS011;60008;50.826;6.896;2023-02-15T00:32:38;25.08;;;9.85;;
72132;SDS011;60008;50.826;6.896;2023-02-15T00:35:23;25.20;;;10.20;;
72132;SDS011;60008;50.826;6.896;2023-02-15T00:38:08;28.50;;;10.27;;
72132;SDS011;60008;50.826;6.896;2023-02-15T00:40:54;25.27;;;10.35;;
72132;SDS011;60008;50.826;6.896;2023-02-15T00:43:40;27.10;;;10.20;;
72132;SDS011;60008;50.826;6.896;2023-02-15T00:46:25;25.17;;;9.95;;
72132;SDS011;60008;50.826;6.896;2023-02-15T00:49:10;24.00;;;10.55;;
72132;SDS011;60008;50.826;6.896;2023-02-15T00:51:55;29.00;;;10.80;;
72132;SDS011;60008;50.826;6.896;2023-02-15T00:54:40;23.92;;;9.38;;
72132;SDS011;60008;50.826;6.896;2023-02-15T00:57:25;26.27;;;9.53;;
72132;SDS011;60008;50.826;6.896;2023-02-15T01:00:10;23.67;;;9.63;;
72132;SDS011;60008;50.826;6.896;2023-02-15T01:02:56;21.92;;;10.32;;
72132;SDS011;60008;50.826;6.896;2023-02-15T01:05:41;28.17;;;10.60;;
72132;SDS011;60008;50.826;6.896;2023-02-15T01:08:25;25.08;;;10.05;;
72132;SDS011;60008;50.826;6.896;2023-02-15T01:11:12;22.73;;;9.73;;
72132;SDS011;60008;50.826;6.896;2023-02-15T01:13:59;24.45;;;8.95;;
72132;SDS011;60008;50.826;6.896;2023-02-15T01:16:44;24.20;;;9.75;;
72132;SDS011;60008;50.826;6.896;2023-02-15T01:19:29;24.63;;;9.90;;
72132;SDS011;60008;50.826;6.896;2023-02-15T01:22:14;26.05;;;9.90;;
72132;SDS011;60008;50.826;6.896;2023-02-15T01:24:59;24.10;;;9.10;;
72132;SDS011;60008;50.826;6.896;2023-02-15T01:27:44;24.05;;;10.38;;
72132;SDS011;60008;50.826;6.896;2023-02-15T01:30:29;27.17;;;9.50;;
72132;SDS011;60008;50.826;6.896;2023-02-15T01:33:14;24.02;;;9.13;;
72132;SDS011;60008;50.826;6.896;2023-02-15T01:36:02;22.42;;;9.02;;
72132;SDS011;60008;50.826;6.896;2023-02-15T01:38:48;24.77;;;9.20;;
72132;SDS011;60008;50.826;6.896;2023-02-15T01:41:34;22.05;;;9.18;;
72132;SDS011;60008;50.826;6.896;2023-02-15T01:47:43;21.60;;;8.85;;
72132;SDS011;60008;50.826;6.896;2023-02-15T01:50:34;23.70;;;10.32;;
72132;SDS011;60008;50.826;6.896;2023-02-15T01:53:24;21.83;;;9.67;;
72132;SDS011;60008;50.826;6.896;2023-02-15T01:56:17;25.70;;;10.15;;
72132;SDS011;60008;50.826;6.896;2023-02-15T01:59:11;30.42;;;11.48;;
72132;SDS011;60008;50.826;6.896;2023-02-15T02:02:01;24.20;;;9.98;;
72132;SDS011;60008;50.826;6.896;2023-02-15T02:04:49;24.67;;;10.05;;
72132;SDS011;60008;50.826;6.896;2023-02-15T02:07:37;27.37;;;10.63;;
72132;SDS011;60008;50.826;6.896;2023-02-15T02:10:25;24.80;;;10.27;;
72132;SDS011;60008;50.826;6.896;2023-02-15T02:13:10;24.15;;;9.60;;
72132;SDS011;60008;50.826;6.896;2023-02-15T02:25:52;25.25;;;9.32;;
72132;SDS011;60008;50.826;6.896;2023-02-15T02:28:52;20.02;;;8.75;;
72132;SDS011;60008;50.826;6.896;2023-02-15T02:35:09;25.08;;;10.30;;
72132;SDS011;60008;50.826;6.896;2023-02-15T02:38:08;24.37;;;10.17;;
72132;SDS011;60008;50.826;6.896;2023-02-15T02:41:16;24.25;;;10.15;;
72132;SDS011;60008;50.826;6.896;2023-02-15T02:44:13;24.80;;;9.35;;
72132;SDS011;60008;50.826;6.896;2023-02-15T02:50:05;22.00;;;9.38;;
72132;SDS011;60008;50.826;6.896;2023-02-15T02:52:53;18.90;;;8.83;;
72132;SDS011;60008;50.826;6.896;2023-02-15T02:55:41;26.02;;;9.60;;
72132;SDS011;60008;50.826;6.896;2023-02-15T02:58:39;24.20;;;9.85;;
72132;SDS011;60008;50.826;6.896;2023-02-15T03:01:32;22.98;;;8.60;;
72132;SDS011;60008;50.826;6.896;2023-02-15T03:04:22;20.67;;;8.65;;
72132;SDS011;60008;50.826;6.896;2023-02-15T03:07:11;20.90;;;8.87;;
72132;SDS011;60008;50.826;6.896;2023-02-15T03:10:06;24.63;;;9.73;;
72132;SDS011;60008;50.826;6.896;2023-02-15T03:12:52;23.13;;;8.90;;
72132;SDS011;60008;50.826;6.896;2023-02-15T03:15:38;26.90;;;8.88;;
72132;SDS011;60008;50.826;6.896;2023-02-15T03:18:46;21.60;;;8.50;;
72132;SDS011;60008;50.826;6.896;2023-02-15T03:21:44;25.90;;;9.73;;
72132;SDS011;60008;50.826;6.896;2023-02-15T03:27:52;24.92;;;8.88;;
72132;SDS011;60008;50.826;6.896;2023-02-15T03:30:41;26.10;;;9.73;;
72132;SDS011;60008;50.826;6.896;2023-02-15T03:33:29;27.90;;;10.73;;
72132;SDS011;60008;50.826;6.896;2023-02-15T03:39:13;19.27;;;7.93;;
72132;SDS011;60008;50.826;6.896;2023-02-15T03:42:11;19.98;;;8.68;;
72132;SDS011;60008;50.826;6.896;2023-02-15T03:45:02;26.08;;;9.63;;
72132;SDS011;60008;50.826;6.896;2023-02-15T03:47:50;26.02;;;10.85;;
72132;SDS011;60008;50.826;6.896;2023-02-15T03:50:39;29.13;;;10.23;;
72132;SDS011;60008;50.826;6.896;2023-02-15T03:53:44;25.17;;;10.10;;
72132;SDS011;60008;50.826;6.896;2023-02-15T03:56:33;28.00;;;9.73;;
72132;SDS011;60008;50.826;6.896;2023-02-15T03:59:19;26.80;;;9.93;;
72132;SDS011;60008;50.826;6.896;2023-02-15T04:02:24;24.33;;;9.70;;
72132;SDS011;60008;50.826;6.896;2023-02-15T04:05:19;19.90;;;9.23;;
72132;SDS011;60008;50.826;6.896;2023-02-15T04:08:04;20.38;;;8.55;;
72132;SDS011;60008;50.826;6.896;2023-02-15T04:10:49;19.48;;;7.70;;
72132;SDS011;60008;50.826;6.896;2023-02-15T04:13:36;23.25;;;9.10;;
72132;SDS011;60008;50.826;6.896;2023-02-15T04:16:24;22.30;;;9.88;;
72132;SDS011;60008;50.826;6.896;2023-02-15T04:19:10;24.57;;;8.90;;
72132;SDS011;60008;50.826;6.896;2023-02-15T04:22:13;21.08;;;8.88;;
72132;SDS011;60008;50.826;6.896;2023-02-15T04:25:17;15.60;;;6.57;;
72132;SDS011;60008;50.826;6.896;2023-02-15T04:28:05;14.07;;;6.10;;
72132;SDS011;60008;50.826;6.896;2023-02-15T04:30:52;22.48;;;9.95;;
72132;SDS011;60008;50.826;6.896;2023-02-15T04:33:37;20.93;;;8.40;;
72132;SDS011;60008;50.826;6.896;2023-02-15T04:36:22;20.80;;;8.27;;
72132;SDS011;60008;50.826;6.896;2023-02-15T04:39:07;22.95;;;8.75;;
72132;SDS011;60008;50.826;6.896;2023-02-15T04:41:53;25.60;;;9.35;;
72132;SDS011;60008;50.826;6.896;2023-02-15T04:44:38;20.95;;;8.10;;
72132;SDS011;60008;50.826;6.896;2023-02-15T04:47:23;17.80;;;6.93;;
72132;SDS011;60008;50.826;6.896;2023-02-15T04:50:08;18.73;;;8.38;;
72132;SDS011;60008;50.826;6.896;2023-02-15T04:52:54;24.42;;;9.35;;
72132;SDS011;60008;50.826;6.896;2023-02-15T04:55:38;23.45;;;8.60;;
72132;SDS011;60008;50.826;6.896;2023-02-15T04:58:24;20.50;;;8.60;;
72132;SDS011;60008;50.826;6.896;2023-02-15T05:01:08;21.43;;;8.80;;
72132;SDS011;60008;50.826;6.896;2023-02-15T05:03:55;20.23;;;7.85;;
72132;SDS011;60008;50.826;6.896;2023-02-15T05:06:40;19.55;;;8.15;;
72132;SDS011;60008;50.826;6.896;2023-02-15T05:09:25;25.23;;;9.35;;
72132;SDS011;60008;50.826;6.896;2023-02-15T05:12:10;20.92;;;8.13;;
72132;SDS011;60008;50.826;6.896;2023-02-15T05:14:55;23.23;;;8.27;;
72132;SDS011;60008;50.826;6.896;2023-02-15T05:17:40;21.27;;;8.57;;
72132;SDS011;60008;50.826;6.896;2023-02-15T05:20:25;23.63;;;7.95;;
72132;SDS011;60008;50.826;6.896;2023-02-15T05:23:10;23.73;;;8.57;;
72132;SDS011;60008;50.826;6.896;2023-02-15T05:25:55;20.17;;;7.82;;
72132;SDS011;60008;50.826;6.896;2023-02-15T05:29:00;18.07;;;8.03;;
72132;SDS011;60008;50.826;6.896;2023-02-15T05:31:44;22.40;;;7.88;;
72132;SDS011;60008;50.826;6.896;2023-02-15T05:34:32;19.83;;;8.32;;
72132;SDS011;60008;50.826;6.896;2023-02-15T05:37:17;24.80;;;9.32;;
72132;SDS011;60008;50.826;6.896;2023-02-15T05:40:03;23.05;;;8.45;;
72132;SDS011;60008;50.826;6.896;2023-02-15T05:42:49;22.50;;;8.60;;
72132;SDS011;60008;50.826;6.896;2023-02-15T05:45:34;28.25;;;9.52;;
72132;SDS011;60008;50.826;6.896;2023-02-15T05:48:19;15.38;;;5.55;;
72132;SDS011;60008;50.826;6.896;2023-02-15T05:51:10;12.07;;;5.15;;
72132;SDS011;60008;50.826;6.896;2023-02-15T05:54:00;22.00;;;8.50;;
72132;SDS011;60008;50.826;6.896;2023-02-15T05:56:45;17.57;;;6.33;;
72132;SDS011;60008;50.826;6.896;2023-02-15T05:59:30;17.45;;;7.38;;
72132;SDS011;60008;50.826;6.896;2023-02-15T06:02:15;19.67;;;7.97;;
72132;SDS011;60008;50.826;6.896;2023-02-15T06:05:00;21.48;;;8.82;;
72132;SDS011;60008;50.826;6.896;2023-02-15T06:07:45;21.95;;;8.55;;
72132;SDS011;60008;50.826;6.896;2023-02-15T06:10:30;24.97;;;9.17;;
72132;SDS011;60008;50.826;6.896;2023-02-15T06:13:15;19.30;;;7.35;;
72132;SDS011;60008;50.826;6.896;2023-02-15T06:16:00;18.30;;;7.80;;
72132;SDS011;60008;50.826;6.896;2023-02-15T06:18:45;21.77;;;7.75;;
72132;SDS011;60008;50.826;6.896;2023-02-15T06:21:31;15.68;;;6.13;;
72132;SDS011;60008;50.826;6.896;2023-02-15T06:24:15;10.33;;;4.40;;
72132;SDS011;60008;50.826;6.896;2023-02-15T06:27:01;17.67;;;7.13;;
72132;SDS011;60008;50.826;6.896;2023-02-15T06:29:46;22.35;;;8.18;;
72132;SDS011;60008;50.826;6.896;2023-02-15T06:32:31;21.38;;;7.38;;
72132;SDS011;60008;50.826;6.896;2023-02-15T06:35:16;18.42;;;7.28;;
72132;SDS011;60008;50.826;6.896;2023-02-15T06:38:01;13.87;;;5.40;;
72132;SDS011;60008;50.826;6.896;2023-02-15T06:40:46;8.85;;;4.22;;
72132;SDS011;60008;50.826;6.896;2023-02-15T06:43:31;21.40;;;8.02;;
72132;SDS011;60008;50.826;6.896;2023-02-15T06:46:17;12.48;;;5.45;;
72132;SDS011;60008;50.826;6.896;2023-02-15T06:49:02;9.05;;;4.45;;
72132;SDS011;60008;50.826;6.896;2023-02-15T06:51:47;19.67;;;7.53;;
72132;SDS011;60008;50.826;6.896;2023-02-15T06:54:32;19.13;;;7.85;;
72132;SDS011;60008;50.826;6.896;2023-02-15T06:57:17;13.35;;;5.00;;
72132;SDS011;60008;50.826;6.896;2023-02-15T07:00:02;10.52;;;4.38;;
72132;SDS011;60008;50.826;6.896;2023-02-15T07:02:56;16.50;;;7.20;;
72132;SDS011;60008;50.826;6.896;2023-02-15T07:05:42;13.53;;;5.57;;
72132;SDS011;60008;50.826;6.896;2023-02-15T07:08:28;16.10;;;6.60;;
72132;SDS011;60008;50.826;6.896;2023-02-15T07:11:14;19.30;;;7.82;;
72132;SDS011;60008;50.826;6.896;2023-02-15T07:14:18;12.07;;;4.78;;
72132;SDS011;60008;50.826;6.896;2023-02-15T07:17:03;9.95;;;4.88;;
72132;SDS011;60008;50.826;6.896;2023-02-15T07:19:49;16.93;;;7.67;;
72132;SDS011;60008;50.826;6.896;2023-02-15T07:22:34;19.75;;;7.90;;
72132;SDS011;60008;50.826;6.896;2023-02-15T07:25:21;17.27;;;7.70;;
72132;SDS011;60008;50.826;6.896;2023-02-15T07:28:06;17.90;;;7.55;;
72132;SDS011;60008;50.826;6.896;2023-02-15T07:30:51;17.45;;;7.70;;
72132;SDS011;60008;50.826;6.896;2023-02-15T07:33:36;21.43;;;8.03;;
72132;SDS011;60008;50.826;6.896;2023-02-15T07:36:21;11.30;;;5.53;;
72132;SDS011;60008;50.826;6.896;2023-02-15T07:39:07;20.17;;;7.75;;
72132;SDS011;60008;50.826;6.896;2023-02-15T07:41:52;18.05;;;7.55;;
72132;SDS011;60008;50.826;6.896;2023-02-15T07:44:37;13.75;;;5.15;;
72132;SDS011;60008;50.826;6.896;2023-02-15T07:47:22;19.27;;;6.37;;
72132;SDS011;60008;50.826;6.896;2023-02-15T07:50:07;19.25;;;7.28;;
72132;SDS011;60008;50.826;6.896;2023-02-15T07:52:52;19.92;;;7.50;;
72132;SDS011;60008;50.826;6.896;2023-02-15T07:55:37;17.27;;;6.78;;
72132;SDS011;60008;50.826;6.896;2023-02-15T07:58:23;9.60;;;4.40;;
72132;SDS011;60008;50.826;6.896;2023-02-15T08:01:32;18.03;;;6.37;;
72132;SDS011;60008;50.826;6.896;2023-02-15T08:04:20;4.20;;;1.92;;
72132;SDS011;60008;50.826;6.896;2023-02-15T08:07:05;18.23;;;7.18;;
72132;SDS011;60008;50.826;6.896;2023-02-15T08:09:50;16.90;;;6.93;;
72132;SDS011;60008;50.826;6.896;2023-02-15T08:12:35;15.57;;;6.22;;
72132;SDS011;60008;50.826;6.896;2023-02-15T08:15:20;8.07;;;3.73;;
72132;SDS011;60008;50.826;6.896;2023-02-15T08:18:05;17.38;;;7.03;;
72132;SDS011;60008;50.826;6.896;2023-02-15T08:20:50;12.77;;;5.22;;
72132;SDS011;60008;50.826;6.896;2023-02-15T08:23:35;14.32;;;6.00;;
72132;SDS011;60008;50.826;6.896;2023-02-15T08:26:20;8.20;;;3.25;;
72132;SDS011;60008;50.826;6.896;2023-02-15T08:29:06;8.77;;;4.20;;
72132;SDS011;60008;50.826;6.896;2023-02-15T08:31:55;18.45;;;7.60;;
72132;SDS011;60008;50.826;6.896;2023-02-15T08:34:43;22.10;;;8.20;;
72132;SDS011;60008;50.826;6.896;2023-02-15T08:37:28;12.57;;;5.57;;
72132;SDS011;60008;50.826;6.896;2023-02-15T08:40:13;16.75;;;6.50;;
72132;SDS011;60008;50.826;6.896;2023-02-15T08:42:58;11.13;;;5.20;;
72132;SDS011;60008;50.826;6.896;2023-02-15T08:45:43;20.10;;;8.20;;
72132;SDS011;60008;50.826;6.896;2023-02-15T08:48:28;19.20;;;7.78;;
72132;SDS011;60008;50.826;6.896;2023-02-15T08:51:14;20.25;;;7.45;;
72132;SDS011;60008;50.826;6.896;2023-02-15T08:54:00;18.08;;;7.80;;
72132;SDS011;60008;50.826;6.896;2023-02-15T08:56:47;17.00;;;7.27;;
72132;SDS011;60008;50.826;6.896;2023-02-15T08:59:32;5.10;;;2.22;;
72132;SDS011;60008;50.826;6.896;2023-02-15T09:02:18;10.75;;;4.85;;
72132;SDS011;60008;50.826;6.896;2023-02-15T09:05:03;18.25;;;7.22;;
72132;SDS011;60008;50.826;6.896;2023-02-15T09:07:48;15.48;;;6.13;;
72132;SDS011;60008;50.826;6.896;2023-02-15T09:10:34;15.13;;;6.30;;
72132;SDS011;60008;50.826;6.896;2023-02-15T09:13:19;15.93;;;6.95;;
72132;SDS011;60008;50.826;6.896;2023-02-15T09:16:06;20.13;;;7.28;;
72132;SDS011;60008;50.826;6.896;2023-02-15T09:18:52;7.65;;;3.20;;
72132;SDS011;60008;50.826;6.896;2023-02-15T09:21:38;14.07;;;4.60;;
72132;SDS011;60008;50.826;6.896;2023-02-15T09:24:23;16.13;;;5.93;;
72132;SDS011;60008;50.826;6.896;2023-02-15T09:27:08;13.50;;;6.20;;
72132;SDS011;60008;50.826;6.896;2023-02-15T09:29:53;15.40;;;6.85;;
72132;SDS011;60008;50.826;6.896;2023-02-15T09:32:38;16.38;;;6.68;;
72132;SDS011;60008;50.826;6.896;2023-02-15T09:35:23;14.25;;;7.18;;
72132;SDS011;60008;50.826;6.896;2023-02-15T09:38:08;20.17;;;7.60;;
72132;SDS011;60008;50.826;6.896;2023-02-15T09:41:02;20.25;;;8.00;;
72132;SDS011;60008;50.826;6.896;2023-02-15T09:43:59;15.52;;;6.57;;
72132;SDS011;60008;50.826;6.896;2023-02-15T09:47:05;22.83;;;7.90;;
72132;SDS011;60008;50.826;6.896;2023-02-15T09:53:15;17.30;;;7.27;;
72132;SDS011;60008;50.826;6.896;2023-02-15T09:56:26;17.25;;;8.35;;
72132;SDS011;60008;50.826;6.896;2023-02-15T09:59:27;22.17;;;8.10;;
72132;SDS011;60008;50.826;6.896;2023-02-15T10:15:31;16.42;;;6.88;;
72132;SDS011;60008;50.826;6.896;2023-02-15T10:21:41;15.90;;;8.18;;
72132;SDS011;60008;50.826;6.896;2023-02-15T10:24:32;15.50;;;6.97;;
72132;SDS011;60008;50.826;6.896;2023-02-15T10:27:41;15.15;;;6.95;;
72132;SDS011;60008;50.826;6.896;2023-02-15T10:30:35;12.25;;;6.22;;
72132;SDS011;60008;50.826;6.896;2023-02-15T10:33:40;15.98;;;7.25;;
72132;SDS011;60008;50.826;6.896;2023-02-15T10:36:41;17.58;;;7.85;;
72132;SDS011;60008;50.826;6.896;2023-02-15T10:39:42;15.53;;;7.53;;
72132;SDS011;60008;50.826;6.896;2023-02-15T10:49:23;14.90;;;7.03;;
72132;SDS011;60008;50.826;6.896;2023-02-15T10:55:42;14.17;;;7.07;;
72132;SDS011;60008;50.826;6.896;2023-02-15T11:01:50;19.42;;;6.65;;
72132;SDS011;60008;50.826;6.896;2023-02-15T11:07:47;14.68;;;6.93;;
72132;SDS011;60008;50.826;6.896;2023-02-15T11:13:41;12.95;;;5.50;;
72132;SDS011;60008;50.826;6.896;2023-02-15T11:16:32;14.57;;;6.82;;
72132;SDS011;60008;50.826;6.896;2023-02-15T11:19:26;16.67;;;7.20;;
72132;SDS011;60008;50.826;6.896;2023-02-15T11:22:16;17.73;;;7.78;;
72132;SDS011;60008;50.826;6.896;2023-02-15T11:25:04;16.23;;;6.50;;
72132;SDS011;60008;50.826;6.896;2023-02-15T11:28:03;15.48;;;7.43;;
72132;SDS011;60008;50.826;6.896;2023-02-15T11:30:58;13.43;;;6.95;;
72132;SDS011;60008;50.826;6.896;2023-02-15T11:34:00;14.50;;;6.95;;
72132;SDS011;60008;50.826;6.896;2023-02-15T11:36:50;14.18;;;6.68;;
72132;SDS011;60008;50.826;6.896;2023-02-15T11:39:36;15.73;;;7.87;;
72132;SDS011;60008;50.826;6.896;2023-02-15T11:42:23;15.30;;;7.40;;
72132;SDS011;60008;50.826;6.896;2023-02-15T11:45:29;13.40;;;7.05;;
72132;SDS011;60008;50.826;6.896;2023-02-15T11:48:15;18.52;;;7.00;;
72132;SDS011;60008;50.826;6.896;2023-02-15T11:51:02;15.25;;;7.20;;
72132;SDS011;60008;50.826;6.896;2023-02-15T11:53:48;16.23;;;8.20;;
72132;SDS011;60008;50.826;6.896;2023-02-15T11:56:34;15.07;;;7.45;;
72132;SDS011;60008;50.826;6.896;2023-02-15T11:59:22;16.35;;;7.35;;
72132;SDS011;60008;50.826;6.896;2023-02-15T12:02:20;14.48;;;7.28;;
72132;SDS011;60008;50.826;6.896;2023-02-15T12:05:09;15.35;;;8.02;;
72132;SDS011;60008;50.826;6.896;2023-02-15T12:08:02;14.77;;;6.97;;
72132;SDS011;60008;50.826;6.896;2023-02-15T12:11:00;16.95;;;7.70;;
72132;SDS011;60008;50.826;6.896;2023-02-15T12:14:02;16.48;;;7.57;;
72132;SDS011;60008;50.826;6.896;2023-02-15T12:16:56;15.43;;;7.47;;
72132;SDS011;60008;50.826;6.896;2023-02-15T12:19:41;19.90;;;7.60;;
72132;SDS011;60008;50.826;6.896;2023-02-15T12:22:31;10.30;;;4.87;;
72132;SDS011;60008;50.826;6.896;2023-02-15T12:25:22;14.65;;;7.03;;
72132;SDS011;60008;50.826;6.896;2023-02-15T12:28:33;11.80;;;5.78;;
72132;SDS011;60008;50.826;6.896;2023-02-15T12:31:26;16.70;;;7.55;;
72132;SDS011;60008;50.826;6.896;2023-02-15T12:34:31;11.93;;;5.47;;
72132;SDS011;60008;50.826;6.896;2023-02-15T12:37:25;8.80;;;3.73;;
72132;SDS011;60008;50.826;6.896;2023-02-15T12:40:26;18.33;;;7.30;;
72132;SDS011;60008;50.826;6.896;2023-02-15T12:43:25;15.20;;;7.15;;
72132;SDS011;60008;50.826;6.896;2023-02-15T12:46:23;16.00;;;7.07;;
72132;SDS011;60008;50.826;6.896;2023-02-15T12:55:38;17.10;;;7.57;;
72132;SDS011;60008;50.826;6.896;2023-02-15T13:01:19;16.30;;;7.30;;
72132;SDS011;60008;50.826;6.896;2023-02-15T13:04:15;13.88;;;6.72;;
72132;SDS011;60008;50.826;6.896;2023-02-15T13:07:11;21.33;;;7.37;;
72132;SDS011;60008;50.826;6.896;2023-02-15T13:09:57;15.60;;;7.13;;
72132;SDS011;60008;50.826;6.896;2023-02-15T13:12:43;13.77;;;6.28;;
72132;SDS011;60008;50.826;6.896;2023-02-15T13:15:34;14.70;;;6.78;;
72132;SDS011;60008;50.826;6.896;2023-02-15T13:18:33;13.02;;;6.85;;
72132;SDS011;60008;50.826;6.896;2023-02-15T13:21:23;16.13;;;7.00;;
72132;SDS011;60008;50.826;6.896;2023-02-15T13:24:24;15.70;;;7.15;;
72132;SDS011;60008;50.826;6.896;2023-02-15T13:27:22;6.05;;;3.10;;
72132;SDS011;60008;50.826;6.896;2023-02-15T13:30:25;12.23;;;5.85;;
72132;SDS011;60008;50.826;6.896;2023-02-15T13:36:23;14.17;;;7.00;;
72132;SDS011;60008;50.826;6.896;2023-02-15T13:42:14;13.60;;;6.18;;
72132;SDS011;60008;50.826;6.896;2023-02-15T13:45:14;15.68;;;7.03;;
72132;SDS011;60008;50.826;6.896;2023-02-15T13:48:20;16.90;;;7.18;;
72132;SDS011;60008;50.826;6.896;2023-02-15T13:51:36;16.83;;;7.73;;
72132;SDS011;60008;50.826;6.896;2023-02-15T13:57:34;11.18;;;5.53;;
72132;SDS011;60008;50.826;6.896;2023-02-15T14:09:59;11.75;;;5.65;;
72132;SDS011;60008;50.826;6.896;2023-02-15T14:13:05;13.05;;;5.57;;
72132;SDS011;60008;50.826;6.896;2023-02-15T14:19:22;10.27;;;5.22;;
72132;SDS011;60008;50.826;6.896;2023-02-15T14:28:06;12.50;;;5.97;;
72132;SDS011;60008;50.826;6.896;2023-02-15T14:30:57;10.70;;;4.57;;
72132;SDS011;60008;50.826;6.896;2023-02-15T14:33:43;11.63;;;6.13;;
72132;SDS011;60008;50.826;6.896;2023-02-15T14:36:38;17.90;;;6.23;;
72132;SDS011;60008;50.826;6.896;2023-02-15T14:39:26;16.23;;;6.90;;
72132;SDS011;60008;50.826;6.896;2023-02-15T14:45:30;13.15;;;6.53;;
72132;SDS011;60008;50.826;6.896;2023-02-15T14:48:31;12.95;;;6.20;;
72132;SDS011;60008;50.826;6.896;2023-02-15T15:00:03;15.93;;;6.47;;
72132;SDS011;60008;50.826;6.896;2023-02-15T15:03:19;10.63;;;5.50;;
72132;SDS011;60008;50.826;6.896;2023-02-15T15:06:20;13.53;;;6.43;;
72132;SDS011;60008;50.826;6.896;2023-02-15T15:09:24;16.35;;;6.95;;
72132;SDS011;60008;50.826;6.896;2023-02-15T15:12:35;15.82;;;7.07;;
72132;SDS011;60008;50.826;6.896;2023-02-15T15:18:09;13.30;;;6.55;;
72132;SDS011;60008;50.826;6.896;2023-02-15T15:20:55;19.30;;;7.40;;
72132;SDS011;60008;50.826;6.896;2023-02-15T15:23:41;13.23;;;5.80;;
72132;SDS011;60008;50.826;6.896;2023-02-15T15:26:30;18.70;;;7.28;;
72132;SDS011;60008;50.826;6.896;2023-02-15T15:29:40;15.43;;;6.80;;
72132;SDS011;60008;50.826;6.896;2023-02-15T15:32:26;16.88;;;7.07;;
72132;SDS011;60008;50.826;6.896;2023-02-15T15:35:27;15.20;;;6.73;;
72132;SDS011;60008;50.826;6.896;2023-02-15T15:38:33;15.60;;;6.90;;
72132;SDS011;60008;50.826;6.896;2023-02-15T15:45:00;13.85;;;7.05;;
72132;SDS011;60008;50.826;6.896;2023-02-15T15:48:01;12.73;;;6.47;;
72132;SDS011;60008;50.826;6.896;2023-02-15T15:51:02;16.40;;;6.50;;
72132;SDS011;60008;50.826;6.896;2023-02-15T15:53:54;15.18;;;6.25;;
72132;SDS011;60008;50.826;6.896;2023-02-15T15:56:40;14.93;;;6.53;;
72132;SDS011;60008;50.826;6.896;2023-02-15T15:59:30;13.45;;;6.53;;
72132;SDS011;60008;50.826;6.896;2023-02-15T16:02:17;15.15;;;6.93;;
72132;SDS011;60008;50.826;6.896;2023-02-15T16:05:09;16.30;;;7.43;;
72132;SDS011;60008;50.826;6.896;2023-02-15T16:07:54;14.10;;;7.35;;
72132;SDS011;60008;50.826;6.896;2023-02-15T16:10:39;15.65;;;7.20;;
72132;SDS011;60008;50.826;6.896;2023-02-15T16:13:25;15.13;;;6.80;;
72132;SDS011;60008;50.826;6.896;2023-02-15T16:16:13;15.50;;;7.05;;
72132;SDS011;60008;50.826;6.896;2023-02-15T16:19:06;14.07;;;7.10;;
72132;SDS011;60008;50.826;6.896;2023-02-15T16:21:59;17.08;;;7.05;;
72132;SDS011;60008;50.826;6.896;2023-02-15T16:28:05;15.95;;;7.15;;
72132;SDS011;60008;50.826;6.896;2023-02-15T16:33:57;15.37;;;7.63;;
72132;SDS011;60008;50.826;6.896;2023-02-15T16:36:42;17.40;;;8.20;;
72132;SDS011;60008;50.826;6.896;2023-02-15T16:39:27;16.70;;;7.15;;
72132;SDS011;60008;50.826;6.896;2023-02-15T16:42:12;18.27;;;7.25;;
72132;SDS011;60008;50.826;6.896;2023-02-15T16:45:07;16.10;;;7.75;;
72132;SDS011;60008;50.826;6.896;2023-02-15T16:47:57;16.30;;;7.60;;
72132;SDS011;60008;50.826;6.896;2023-02-15T16:50:49;15.75;;;7.15;;
72132;SDS011;60008;50.826;6.896;2023-02-15T16:53:37;17.17;;;7.90;;
72132;SDS011;60008;50.826;6.896;2023-02-15T16:56:26;18.85;;;8.57;;
72132;SDS011;60008;50.826;6.896;2023-02-15T16:59:31;18.98;;;8.40;;
72132;SDS011;60008;50.826;6.896;2023-02-15T17:02:28;16.47;;;8.13;;
72132;SDS011;60008;50.826;6.896;2023-02-15T17:05:46;16.70;;;7.43;;
72132;SDS011;60008;50.826;6.896;2023-02-15T17:08:34;18.05;;;7.97;;
72132;SDS011;60008;50.826;6.896;2023-02-15T17:11:34;14.73;;;7.18;;
72132;SDS011;60008;50.826;6.896;2023-02-15T17:14:21;18.45;;;7.28;;
72132;SDS011;60008;50.826;6.896;2023-02-15T17:17:13;16.00;;;7.70;;
72132;SDS011;60008;50.826;6.896;2023-02-15T17:19:59;15.95;;;8.40;;
72132;SDS011;60008;50.826;6.896;2023-02-15T17:22:44;19.33;;;9.18;;
72132;SDS011;60008;50.826;6.896;2023-02-15T17:25:33;21.77;;;9.57;;
72132;SDS011;60008;50.826;6.896;2023-02-15T17:28:26;23.35;;;8.75;;
72132;SDS011;60008;50.826;6.896;2023-02-15T17:31:15;19.80;;;9.50;;
72132;SDS011;60008;50.826;6.896;2023-02-15T17:34:03;21.67;;;9.63;;
72132;SDS011;60008;50.826;6.896;2023-02-15T17:36:58;24.55;;;8.80;;
72132;SDS011;60008;50.826;6.896;2023-02-15T17:39:44;18.67;;;8.70;;
72132;SDS011;60008;50.826;6.896;2023-02-15T17:42:29;22.40;;;9.02;;
72132;SDS011;60008;50.826;6.896;2023-02-15T17:45:14;23.43;;;8.73;;
72132;SDS011;60008;50.826;6.896;2023-02-15T17:48:00;22.92;;;9.55;;
72132;SDS011;60008;50.826;6.896;2023-02-15T17:50:48;21.33;;;8.85;;
72132;SDS011;60008;50.826;6.896;2023-02-15T17:53:33;17.95;;;8.63;;
72132;SDS011;60008;50.826;6.896;2023-02-15T17:56:18;17.80;;;8.02;;
72132;SDS011;60008;50.826;6.896;2023-02-15T17:59:03;20.40;;;8.27;;
72132;SDS011;60008;50.826;6.896;2023-02-15T18:01:53;23.20;;;8.43;;
72132;SDS011;60008;50.826;6.896;2023-02-15T18:04:56;16.85;;;8.18;;
72132;SDS011;60008;50.826;6.896;2023-02-15T18:08:00;24.02;;;9.15;;
72132;SDS011;60008;50.826;6.896;2023-02-15T18:11:04;25.17;;;10.15;;
72132;SDS011;60008;50.826;6.896;2023-02-15T18:14:09;24.50;;;10.50;;
72132;SDS011;60008;50.826;6.896;2023-02-15T18:16:54;25.92;;;11.30;;
72132;SDS011;60008;50.826;6.896;2023-02-15T18:19:40;25.45;;;11.35;;
72132;SDS011;60008;50.826;6.896;2023-02-15T18:22:27;25.88;;;10.95;;
72132;SDS011;60008;50.826;6.896;2023-02-15T18:25:14;27.48;;;11.43;;
72132;SDS011;60008;50.826;6.896;2023-02-15T18:28:01;27.40;;;10.23;;
72132;SDS011;60008;50.826;6.896;2023-02-15T18:30:46;22.48;;;10.68;;
72132;SDS011;60008;50.826;6.896;2023-02-15T18:33:32;21.38;;;10.68;;
72132;SDS011;60008;50.826;6.896;2023-02-15T18:36:24;25.17;;;10.43;;
72132;SDS011;60008;50.826;6.896;2023-02-15T18:42:26;23.63;;;10.63;;
72132;SDS011;60008;50.826;6.896;2023-02-15T18:45:16;23.67;;;11.05;;
72132;SDS011;60008;50.826;6.896;2023-02-15T18:48:07;25.20;;;10.20;;
72132;SDS011;60008;50.826;6.896;2023-02-15T18:50:53;26.08;;;11.32;;
72132;SDS011;60008;50.826;6.896;2023-02-15T18:53:38;23.77;;;10.75;;
72132;SDS011;60008;50.826;6.896;2023-02-15T18:56:23;26.07;;;10.67;;
72132;SDS011;60008;50.826;6.896;2023-02-15T18:59:13;24.20;;;10.60;;